Talghar, Kazakhstan
Current Conditions -  °F | °C
As of 5:30 PM on Monday 20 Oct 2014 (Local Time) from UAAA Reporting Station
Broken Clouds Broken Clouds  
Wind Chill: 68°   Ceiling: 20000
Heat Index: 68°   Visibility: 6mi
Dew Point: 39°   Wind: 9mph
Humidity: 35%   Direction: 50°NE
Pressure: 29.94"   Gusts: NA
Location:  43.3°N, 77.22°E
Report Text: UAAA 201130Z 05004MPS 9999 SCT100 BKN200 20/04 Q1014 R88/CLRD65NOSIG
Loading
Personal Weather Stations






























Interactive Weather Map
Tropical Storm Tracking
New forecast layout! Learn more

10-Day Weather Forecast

Advertisements
Track Severe Weather on mobile